createdAt,value
2022-09-20T00:03:09.210Z,8.66
2022-09-20T00:07:18.425Z,9.87
2022-09-20T00:11:27.646Z,9.81
2022-09-20T00:15:19.214Z,9.38
2022-09-20T00:19:23.127Z,9.01
2022-09-20T00:23:23.937Z,8.59
2022-09-20T00:27:21.075Z,8.41
2022-09-20T00:31:19.406Z,9.65
2022-09-20T00:35:28.591Z,9.73
2022-09-20T00:39:30.707Z,9.38
2022-09-20T00:43:33.939Z,8.95
2022-09-20T00:47:31.223Z,8.63
2022-09-20T00:51:34.052Z,8.60
2022-09-20T00:55:42.287Z,9.91
2022-09-20T01:00:02.342Z,9.95
2022-09-20T01:04:10.542Z,9.46
2022-09-20T01:08:18.754Z,9.04
2022-09-20T01:12:28.974Z,8.78
2022-09-20T01:16:37.366Z,8.89
2022-09-20T01:20:40.650Z,10.21
2022-09-20T01:24:47.319Z,10.23
2022-09-20T01:28:55.507Z,9.89
2022-09-20T01:32:54.032Z,9.53
2022-09-20T01:37:03.286Z,9.44
2022-09-20T01:41:01.466Z,10.62
2022-09-20T01:45:07.075Z,10.60
2022-09-20T01:49:23.787Z,10.12
2022-09-20T01:53:30.299Z,9.69
2022-09-20T01:57:37.318Z,9.34
2022-09-20T02:02:14.033Z,9.65
2022-09-20T02:06:28.283Z,10.07
2022-09-20T02:10:48.355Z,9.69
2022-09-20T02:15:08.852Z,9.28
2022-09-20T02:19:35.790Z,9.41
2022-09-20T02:23:29.994Z,10.67
2022-09-20T02:27:56.590Z,10.50
2022-09-20T02:31:57.560Z,10.03
2022-09-20T02:36:11.572Z,9.56
2022-09-20T02:40:47.408Z,9.52
2022-09-20T02:45:13.550Z,10.69
2022-09-20T02:49:37.024Z,10.46
2022-09-20T02:53:54.264Z,10.03
2022-09-20T02:57:59.474Z,9.60
2022-09-20T03:02:04.609Z,9.51
2022-09-20T03:06:07.410Z,10.76
2022-09-20T03:10:33.785Z,10.62
2022-09-20T03:14:44.792Z,10.05
2022-09-20T03:21:24.432Z,9.21
2022-09-20T03:25:44.894Z,10.16
2022-09-20T03:29:58.479Z,10.37
2022-09-20T03:34:30.855Z,10.05
2022-09-20T03:38:37.870Z,9.70
2022-09-20T03:42:48.196Z,9.42
2022-09-20T03:46:59.441Z,9.24
2022-09-20T03:51:17.116Z,9.46
2022-09-20T03:55:30.131Z,10.88
2022-09-20T03:59:55.139Z,10.81
2022-09-20T04:03:45.621Z,10.42
2022-09-20T04:07:56.693Z,10.10
2022-09-20T04:12:04.899Z,10.12
2022-09-20T04:16:40.654Z,11.32
2022-09-20T04:20:36.089Z,11.22
2022-09-20T04:24:43.810Z,10.83
2022-09-20T04:28:48.652Z,10.46
2022-09-20T04:32:46.307Z,10.17
2022-09-20T04:37:13.643Z,10.22
2022-09-20T04:41:27.874Z,11.64
2022-09-20T04:45:55.931Z,11.61
2022-09-20T04:50:01.509Z,11.24
2022-09-20T04:54:06.825Z,10.89
2022-09-20T04:57:38.189Z,10.93
2022-09-20T05:01:51.993Z,12.12
2022-09-20T05:05:35.671Z,12.26
2022-09-20T05:09:46.072Z,11.90
2022-09-20T05:13:57.362Z,11.50
2022-09-20T05:17:43.727Z,11.43
2022-09-20T05:22:11.212Z,12.61
2022-09-20T05:26:37.501Z,12.54
2022-09-20T05:30:33.703Z,12.09
2022-09-20T05:34:10.042Z,11.72
2022-09-20T05:37:42.661Z,11.55
2022-09-20T05:41:19.414Z,12.73
2022-09-20T05:45:10.180Z,12.91
2022-09-20T05:49:20.429Z,12.51
2022-09-20T05:53:50.855Z,12.04
2022-09-20T05:58:03.492Z,11.57
2022-09-20T06:02:11.635Z,11.64
2022-09-20T06:06:18.248Z,12.76
2022-09-20T06:10:26.392Z,12.60
2022-09-20T06:14:26.238Z,12.19
2022-09-20T06:18:26.249Z,11.86
2022-09-20T06:22:40.709Z,11.87
2022-09-20T06:26:44.654Z,13.01
2022-09-20T06:30:58.780Z,12.82
2022-09-20T06:35:07.128Z,12.42
2022-09-20T06:39:14.121Z,12.14
2022-09-20T06:43:21.991Z,12.21
2022-09-20T06:47:19.998Z,13.33
2022-09-20T06:51:28.282Z,13.26
2022-09-20T06:54:57.307Z,12.92
2022-09-20T06:58:48.079Z,12.62
2022-09-20T07:02:14.308Z,12.36
2022-09-20T07:05:02.260Z,12.22
2022-09-20T07:08:32.608Z,13.14
2022-09-20T07:12:32.023Z,13.78
2022-09-20T07:16:42.197Z,13.55
2022-09-20T07:20:06.722Z,13.28
2022-09-20T07:23:36.091Z,13.12
2022-09-20T07:27:37.591Z,13.08
2022-09-20T07:31:37.576Z,14.29
2022-09-20T07:35:44.998Z,14.35
2022-09-20T07:39:33.189Z,14.07
2022-09-20T07:43:41.355Z,13.85
2022-09-20T07:47:49.527Z,13.67
2022-09-20T07:51:37.713Z,13.86
2022-09-20T07:55:29.303Z,15.27
2022-09-20T07:58:56.006Z,15.53
2022-09-20T08:02:56.207Z,15.38
2022-09-20T08:06:43.102Z,15.04
2022-09-20T08:10:26.769Z,14.72
2022-09-20T08:14:16.842Z,14.51
2022-09-20T08:17:38.290Z,14.53
2022-09-20T08:21:37.714Z,15.61
2022-09-20T08:25:17.430Z,15.89
2022-09-20T08:29:08.490Z,15.61
2022-09-20T08:32:57.653Z,15.27
2022-09-20T08:36:25.133Z,14.90
2022-09-20T08:40:01.225Z,14.62
2022-09-20T08:44:09.458Z,14.34
2022-09-20T08:48:07.549Z,14.37
2022-09-20T08:52:10.432Z,15.54
2022-09-20T08:56:09.303Z,15.39
2022-09-20T09:00:03.119Z,14.95
2022-09-20T09:03:57.598Z,14.58
2022-09-20T09:07:45.689Z,14.24
2022-09-20T09:11:45.466Z,14.04
2022-09-20T09:15:46.643Z,13.85
2022-09-20T09:20:07.058Z,14.02
2022-09-20T09:23:43.617Z,15.44
2022-09-20T09:27:48.337Z,15.88
2022-09-20T09:31:28.911Z,15.69
2022-09-20T09:35:29.891Z,15.63
2022-09-20T09:39:30.700Z,15.70
2022-09-20T09:43:23.582Z,15.90
2022-09-20T09:47:31.730Z,15.85
2022-09-20T09:51:55.296Z,15.66
2022-09-20T09:55:19.955Z,15.54
2022-09-20T09:58:57.759Z,15.37
2022-09-20T10:02:56.091Z,15.22
2022-09-20T10:07:31.602Z,15.14
2022-09-20T10:11:45.614Z,15.02
2022-09-20T10:15:59.574Z,14.77
2022-09-20T10:20:13.561Z,14.60
2022-09-20T10:24:14.721Z,14.41
2022-09-20T10:28:31.582Z,14.49
2022-09-20T10:32:41.812Z,15.85
2022-09-20T10:37:11.383Z,15.85
2022-09-20T10:41:19.830Z,15.49
2022-09-20T10:45:59.487Z,15.17
2022-09-20T10:49:57.127Z,14.83
2022-09-20T10:53:43.934Z,14.63
2022-09-20T10:57:47.337Z,14.55
2022-09-20T11:01:55.687Z,14.57
2022-09-20T11:06:04.949Z,14.79
2022-09-20T11:10:13.201Z,16.07
2022-09-20T11:14:06.951Z,16.02
2022-09-20T11:18:18.256Z,15.64
2022-09-20T11:22:39.979Z,15.14
2022-09-20T11:26:30.789Z,14.72
2022-09-20T11:30:38.618Z,14.43
2022-09-20T11:34:32.092Z,14.23
2022-09-20T11:38:28.926Z,14.32
2022-09-20T11:42:30.495Z,15.54
2022-09-20T11:46:15.307Z,15.48
2022-09-20T11:49:27.049Z,15.03
2022-09-20T11:53:27.630Z,14.63
2022-09-20T11:57:31.413Z,14.26
2022-09-20T12:01:09.541Z,14.06
2022-09-20T12:04:32.846Z,14.22
2022-09-20T12:08:21.335Z,15.46
2022-09-20T12:12:01.851Z,15.62
2022-09-20T12:16:15.088Z,15.32
2022-09-20T12:20:23.256Z,14.86
2022-09-20T12:23:58.979Z,14.54
2022-09-20T12:27:27.129Z,14.40
2022-09-20T12:31:21.777Z,15.59
2022-09-20T12:34:29.666Z,15.79
2022-09-20T12:36:57.087Z,15.57
2022-09-20T12:40:25.252Z,15.31
2022-09-20T12:44:16.716Z,14.85
2022-09-20T12:47:53.753Z,14.57
2022-09-20T12:52:15.559Z,14.31
2022-09-20T12:56:39.513Z,14.52
2022-09-20T13:00:25.123Z,15.63
2022-09-20T13:04:32.827Z,15.59
2022-09-20T13:08:08.163Z,15.24
2022-09-20T13:11:29.246Z,15.00
2022-09-20T13:14:40.673Z,14.79
2022-09-20T13:18:11.680Z,14.66
2022-09-20T13:21:24.400Z,15.76
2022-09-20T13:25:14.321Z,16.06
2022-09-20T13:29:25.256Z,15.76
2022-09-20T13:33:22.095Z,15.43
2022-09-20T13:37:14.319Z,15.12
2022-09-20T13:41:11.898Z,14.84
2022-09-20T13:44:32.245Z,14.82
2022-09-20T13:48:15.348Z,15.90
2022-09-20T13:51:47.856Z,16.15
2022-09-20T13:55:16.723Z,15.92
2022-09-20T13:58:43.164Z,15.54
2022-09-20T14:02:29.285Z,15.15
2022-09-20T14:06:32.270Z,14.84
2022-09-20T14:10:34.511Z,14.83
2022-09-20T14:14:22.644Z,16.01
2022-09-20T14:17:55.528Z,16.02
2022-09-20T14:21:46.500Z,15.67
2022-09-20T14:26:03.339Z,15.22
2022-09-20T14:30:02.829Z,14.83
2022-09-20T14:33:33.342Z,14.57
2022-09-20T14:36:48.935Z,14.45
2022-09-20T14:40:48.378Z,15.62
2022-09-20T14:44:11.571Z,15.82
2022-09-20T14:47:39.659Z,15.56
2022-09-20T14:51:47.028Z,15.09
2022-09-20T14:56:02.486Z,14.65
2022-09-20T14:59:59.378Z,14.30
2022-09-20T15:03:38.583Z,14.24
2022-09-20T15:07:47.913Z,15.45
2022-09-20T15:11:50.086Z,15.49
2022-09-20T15:15:19.118Z,15.06
2022-09-20T15:19:10.759Z,14.62
2022-09-20T15:22:41.533Z,14.22
2022-09-20T15:26:37.251Z,14.04
2022-09-20T15:30:07.598Z,15.12
2022-09-20T15:32:45.326Z,15.24
2022-09-20T15:36:37.096Z,14.99
2022-09-20T15:40:35.604Z,14.52
2022-09-20T15:43:22.125Z,14.14
2022-09-20T15:47:01.206Z,13.91
2022-09-20T15:50:32.871Z,13.85
2022-09-20T15:54:16.511Z,14.92
2022-09-20T15:57:00.134Z,14.96
2022-09-20T15:59:53.741Z,14.72
2022-09-20T16:03:05.081Z,14.36
2022-09-20T16:06:53.342Z,13.95
2022-09-20T16:11:03.643Z,13.82
2022-09-20T16:14:14.015Z,14.86
2022-09-20T16:17:26.011Z,14.87
2022-09-20T16:21:34.404Z,14.49
2022-09-20T16:25:35.515Z,14.00
2022-09-20T16:29:12.473Z,13.65
2022-09-20T16:32:44.883Z,13.44
2022-09-20T16:36:07.772Z,14.45
2022-09-20T16:39:18.887Z,14.69
2022-09-20T16:42:04.879Z,14.46
2022-09-20T16:45:23.776Z,14.14
2022-09-20T16:48:42.396Z,13.74
2022-09-20T16:51:48.128Z,13.43
2022-09-20T16:54:38.443Z,13.22
2022-09-20T16:57:32.142Z,14.07
2022-09-20T17:00:59.955Z,14.57
2022-09-20T17:04:45.426Z,14.34
2022-09-20T17:08:36.186Z,13.89
2022-09-20T17:12:34.191Z,13.45
2022-09-20T17:16:34.532Z,13.32
2022-09-20T17:20:43.777Z,14.43
2022-09-20T17:24:39.211Z,14.33
2022-09-20T17:28:49.452Z,13.81
2022-09-20T17:32:20.539Z,13.36
2022-09-20T17:35:22.205Z,13.07
2022-09-20T17:39:30.528Z,12.91
2022-09-20T17:43:37.956Z,14.11
2022-09-20T17:46:45.054Z,14.09
2022-09-20T17:49:19.957Z,13.79
2022-09-20T17:52:39.000Z,13.43
2022-09-20T17:55:38.219Z,13.06
2022-09-20T17:59:04.406Z,12.73
2022-09-20T18:03:06.301Z,12.59
2022-09-20T18:07:05.129Z,13.73
2022-09-20T18:10:48.434Z,13.70
2022-09-20T18:14:20.964Z,13.28
2022-09-20T18:17:21.102Z,12.83
2022-09-20T18:20:49.358Z,12.57
2022-09-20T18:24:45.060Z,12.51
2022-09-20T18:28:38.699Z,13.62
2022-09-20T18:31:58.365Z,13.63
2022-09-20T18:35:46.749Z,13.27
2022-09-20T18:39:16.794Z,12.86
2022-09-20T18:43:04.465Z,12.51
2022-09-20T18:46:49.959Z,12.44
2022-09-20T18:50:32.087Z,13.60
2022-09-20T18:53:38.492Z,13.63
2022-09-20T18:57:12.780Z,13.31
2022-09-20T19:00:20.346Z,12.96
2022-09-20T19:03:59.825Z,12.70
2022-09-20T19:07:48.191Z,12.61
2022-09-20T19:11:48.205Z,13.77
2022-09-20T19:15:51.211Z,13.73
2022-09-20T19:19:55.271Z,13.36
2022-09-20T19:23:42.555Z,12.97
2022-09-20T19:26:40.783Z,12.66
2022-09-20T19:30:36.020Z,12.50
2022-09-20T19:34:19.697Z,13.75
2022-09-20T19:38:31.498Z,13.89
2022-09-20T19:42:41.229Z,13.43
2022-09-20T19:46:34.931Z,12.96
2022-09-20T19:49:57.527Z,12.66
2022-09-20T19:52:25.338Z,12.49
2022-09-20T19:55:39.370Z,13.30
2022-09-20T19:58:51.195Z,13.86
2022-09-20T20:02:17.347Z,13.66
2022-09-20T20:06:31.638Z,13.27
2022-09-20T20:10:44.894Z,12.83
2022-09-20T20:14:36.486Z,12.81
2022-09-20T20:18:25.485Z,13.85
2022-09-20T20:22:29.683Z,13.77
2022-09-20T20:26:49.943Z,13.30
2022-09-20T20:30:50.603Z,12.85
2022-09-20T20:34:23.198Z,12.70
2022-09-20T20:38:14.017Z,13.77
2022-09-20T20:42:22.298Z,13.83
2022-09-20T20:46:19.136Z,13.39
2022-09-20T20:50:18.426Z,12.99
2022-09-20T20:53:49.483Z,12.65
2022-09-20T20:57:46.524Z,12.55
2022-09-20T21:01:24.053Z,13.72
2022-09-20T21:05:08.389Z,13.72
2022-09-20T21:09:09.503Z,13.29
2022-09-20T21:13:12.376Z,12.85
2022-09-20T21:17:22.540Z,12.70
2022-09-20T21:21:21.694Z,13.68
2022-09-20T21:24:49.321Z,13.51
2022-09-20T21:27:32.254Z,13.19
2022-09-20T21:30:25.566Z,12.85
2022-09-20T21:33:36.310Z,12.53
2022-09-20T21:36:58.470Z,12.32
2022-09-20T21:40:45.392Z,13.39
2022-09-20T21:44:34.687Z,13.61
2022-09-20T21:48:09.312Z,13.21
2022-09-20T21:51:57.739Z,12.84
2022-09-20T21:55:58.798Z,12.49
2022-09-20T22:00:01.621Z,12.46
2022-09-20T22:03:49.663Z,13.60
2022-09-20T22:07:50.507Z,13.62
2022-09-20T22:11:56.511Z,13.21
2022-09-20T22:15:27.836Z,12.81
2022-09-20T22:18:38.372Z,12.64
2022-09-20T22:22:47.748Z,13.75
2022-09-20T22:27:01.989Z,13.81
2022-09-20T22:31:12.079Z,13.40
2022-09-20T22:35:12.765Z,12.96
2022-09-20T22:39:20.939Z,12.88
2022-09-20T22:43:29.469Z,14.01
2022-09-20T22:47:37.581Z,13.91
2022-09-20T22:51:41.606Z,13.49
2022-09-20T22:55:37.270Z,13.07
2022-09-20T22:59:45.440Z,12.97
2022-09-20T23:03:53.704Z,14.11
2022-09-20T23:08:02.944Z,14.02
2022-09-20T23:11:57.108Z,13.56
2022-09-20T23:16:05.369Z,13.15
2022-09-20T23:20:13.540Z,13.10
2022-09-20T23:24:14.557Z,14.15
2022-09-20T23:28:16.249Z,14.00
2022-09-20T23:32:24.383Z,13.55
2022-09-20T23:36:14.926Z,13.10
2022-09-20T23:40:23.145Z,12.98
2022-09-20T23:44:30.263Z,14.12
2022-09-20T23:48:28.852Z,14.00
2022-09-20T23:52:37.016Z,13.52
2022-09-20T23:56:45.191Z,13.07
